sensor_id;sensor_type;location;lat;lon;timestamp;pressure;altitude;pressure_sealevel;temperature;humidity
46111;BME280;31849;55.992;37.252;2023-03-12T00:01:30;96765.00;;;1.88;73.65
46111;BME280;31849;55.992;37.252;2023-03-12T00:06:35;96761.56;;;1.92;73.52
46111;BME280;31849;55.992;37.252;2023-03-12T00:11:40;96738.41;;;2.00;73.50
46111;BME280;31849;55.992;37.252;2023-03-12T00:16:43;96727.06;;;2.18;74.08
46111;BME280;31849;55.992;37.252;2023-03-12T00:21:47;96715.75;;;2.33;72.66
46111;BME280;31849;55.992;37.252;2023-03-12T00:26:52;96703.19;;;2.14;74.18
46111;BME280;31849;55.992;37.252;2023-03-12T00:31:55;96691.84;;;2.32;75.10
46111;BME280;31849;55.992;37.252;2023-03-12T00:36:59;96685.06;;;2.26;74.00
46111;BME280;31849;55.992;37.252;2023-03-12T00:42:04;96675.66;;;2.27;74.10
46111;BME280;31849;55.992;37.252;2023-03-12T00:47:08;96660.19;;;2.35;73.65
46111;BME280;31849;55.992;37.252;2023-03-12T00:52:11;96649.78;;;2.44;73.96
46111;BME280;31849;55.992;37.252;2023-03-12T00:57:16;96637.72;;;2.49;74.68
46111;BME280;31849;55.992;37.252;2023-03-12T01:02:20;96627.19;;;2.66;74.25
46111;BME280;31849;55.992;37.252;2023-03-12T01:07:23;96594.06;;;2.52;74.38
46111;BME280;31849;55.992;37.252;2023-03-12T01:12:28;96606.69;;;2.66;73.86
46111;BME280;31849;55.992;37.252;2023-03-12T01:17:31;96590.38;;;2.67;75.31
46111;BME280;31849;55.992;37.252;2023-03-12T01:22:35;96587.78;;;2.72;73.97
46111;BME280;31849;55.992;37.252;2023-03-12T01:27:40;96579.03;;;2.80;74.30
46111;BME280;31849;55.992;37.252;2023-03-12T01:32:44;96579.72;;;2.90;73.90
46111;BME280;31849;55.992;37.252;2023-03-12T01:37:47;96573.75;;;2.91;74.29
46111;BME280;31849;55.992;37.252;2023-03-12T01:42:53;96560.72;;;3.01;74.37
46111;BME280;31849;55.992;37.252;2023-03-12T01:47:57;96548.38;;;3.20;74.17
46111;BME280;31849;55.992;37.252;2023-03-12T01:53:01;96539.81;;;3.19;75.64
46111;BME280;31849;55.992;37.252;2023-03-12T01:58:06;96540.28;;;3.38;75.93
46111;BME280;31849;55.992;37.252;2023-03-12T02:03:10;96527.88;;;3.18;76.94
46111;BME280;31849;55.992;37.252;2023-03-12T02:08:16;96523.28;;;3.32;75.26
46111;BME280;31849;55.992;37.252;2023-03-12T02:13:21;96516.03;;;3.51;75.14
46111;BME280;31849;55.992;37.252;2023-03-12T02:18:26;96507.56;;;3.48;75.13
46111;BME280;31849;55.992;37.252;2023-03-12T02:23:31;96498.00;;;3.53;75.38
46111;BME280;31849;55.992;37.252;2023-03-12T02:28:39;96494.88;;;3.40;75.59
46111;BME280;31849;55.992;37.252;2023-03-12T02:33:45;96473.03;;;3.60;74.56
46111;BME280;31849;55.992;37.252;2023-03-12T02:38:50;96454.81;;;3.70;75.01
46111;BME280;31849;55.992;37.252;2023-03-12T02:44:00;96446.16;;;3.75;75.49
46111;BME280;31849;55.992;37.252;2023-03-12T02:49:04;96441.44;;;3.92;74.54
46111;BME280;31849;55.992;37.252;2023-03-12T02:54:08;96432.16;;;3.86;75.12
46111;BME280;31849;55.992;37.252;2023-03-12T02:59:14;96417.84;;;3.76;75.60
46111;BME280;31849;55.992;37.252;2023-03-12T03:04:18;96405.63;;;3.86;75.50
46111;BME280;31849;55.992;37.252;2023-03-12T03:09:21;96397.09;;;3.84;75.59
46111;BME280;31849;55.992;37.252;2023-03-12T03:14:26;96385.19;;;4.14;74.82
46111;BME280;31849;55.992;37.252;2023-03-12T03:19:30;96365.59;;;4.10;74.75
46111;BME280;31849;55.992;37.252;2023-03-12T03:24:33;96374.03;;;4.14;74.91
46111;BME280;31849;55.992;37.252;2023-03-12T03:29:38;96370.84;;;4.05;76.08
46111;BME280;31849;55.992;37.252;2023-03-12T03:34:42;96354.63;;;4.02;76.71
46111;BME280;31849;55.992;37.252;2023-03-12T03:39:45;96350.59;;;3.93;77.74
46111;BME280;31849;55.992;37.252;2023-03-12T03:44:50;96344.22;;;4.07;76.47
46111;BME280;31849;55.992;37.252;2023-03-12T03:49:53;96339.63;;;4.19;75.82
46111;BME280;31849;55.992;37.252;2023-03-12T03:54:57;96318.22;;;4.19;75.59
46111;BME280;31849;55.992;37.252;2023-03-12T04:00:03;96317.25;;;4.21;75.62
46111;BME280;31849;55.992;37.252;2023-03-12T04:05:11;96303.69;;;4.16;76.34
46111;BME280;31849;55.992;37.252;2023-03-12T04:10:14;96294.13;;;4.21;76.61
46111;BME280;31849;55.992;37.252;2023-03-12T04:15:19;96285.84;;;4.12;78.24
46111;BME280;31849;55.992;37.252;2023-03-12T04:20:22;96279.81;;;4.11;79.59
46111;BME280;31849;55.992;37.252;2023-03-12T04:25:26;96269.16;;;4.25;77.62
46111;BME280;31849;55.992;37.252;2023-03-12T04:30:31;96256.28;;;4.27;78.37
46111;BME280;31849;55.992;37.252;2023-03-12T04:35:34;96254.97;;;4.42;77.82
46111;BME280;31849;55.992;37.252;2023-03-12T04:40:38;96239.44;;;4.45;77.35
46111;BME280;31849;55.992;37.252;2023-03-12T04:45:43;96231.81;;;4.42;78.48
46111;BME280;31849;55.992;37.252;2023-03-12T04:50:46;96240.06;;;4.53;77.59
46111;BME280;31849;55.992;37.252;2023-03-12T04:55:50;96241.00;;;4.50;78.50
46111;BME280;31849;55.992;37.252;2023-03-12T05:00:55;96227.31;;;4.48;79.05
46111;BME280;31849;55.992;37.252;2023-03-12T05:05:58;96223.09;;;4.47;79.90
46111;BME280;31849;55.992;37.252;2023-03-12T05:11:01;96223.69;;;4.55;78.78
46111;BME280;31849;55.992;37.252;2023-03-12T05:16:07;96188.31;;;4.62;78.29
46111;BME280;31849;55.992;37.252;2023-03-12T05:21:13;96199.72;;;4.82;78.79
46111;BME280;31849;55.992;37.252;2023-03-12T05:26:18;96188.47;;;4.84;77.50
46111;BME280;31849;55.992;37.252;2023-03-12T05:31:23;96170.94;;;4.96;77.88
46111;BME280;31849;55.992;37.252;2023-03-12T05:36:27;96173.34;;;5.00;78.12
46111;BME280;31849;55.992;37.252;2023-03-12T05:41:31;96169.28;;;4.95;78.73
46111;BME280;31849;55.992;37.252;2023-03-12T05:46:36;96159.16;;;5.15;77.65
46111;BME280;31849;55.992;37.252;2023-03-12T05:51:39;96150.88;;;5.05;77.86
46111;BME280;31849;55.992;37.252;2023-03-12T05:56:44;96153.78;;;4.96;78.11
46111;BME280;31849;55.992;37.252;2023-03-12T06:01:49;96148.81;;;5.17;78.48
46111;BME280;31849;55.992;37.252;2023-03-12T06:06:52;96143.00;;;5.10;79.22
46111;BME280;31849;55.992;37.252;2023-03-12T06:11:56;96132.09;;;5.28;77.32
46111;BME280;31849;55.992;37.252;2023-03-12T06:17:01;96141.94;;;5.41;77.45
46111;BME280;31849;55.992;37.252;2023-03-12T06:22:04;96147.16;;;5.39;77.44
46111;BME280;31849;55.992;37.252;2023-03-12T06:27:08;96138.94;;;5.53;77.00
46111;BME280;31849;55.992;37.252;2023-03-12T06:32:13;96132.38;;;5.44;78.42
46111;BME280;31849;55.992;37.252;2023-03-12T06:37:17;96142.03;;;5.63;77.38
46111;BME280;31849;55.992;37.252;2023-03-12T06:42:20;96124.47;;;5.73;77.20
46111;BME280;31849;55.992;37.252;2023-03-12T06:47:25;96117.44;;;5.78;77.36
46111;BME280;31849;55.992;37.252;2023-03-12T06:52:28;96123.25;;;5.83;76.96
46111;BME280;31849;55.992;37.252;2023-03-12T06:57:32;96106.53;;;5.70;78.18
46111;BME280;31849;55.992;37.252;2023-03-12T07:02:37;96102.97;;;5.74;78.38
46111;BME280;31849;55.992;37.252;2023-03-12T07:07:40;96093.94;;;5.86;77.29
46111;BME280;31849;55.992;37.252;2023-03-12T07:12:45;96083.63;;;5.86;78.11
46111;BME280;31849;55.992;37.252;2023-03-12T07:17:50;96075.66;;;5.92;77.23
46111;BME280;31849;55.992;37.252;2023-03-12T07:22:54;96088.41;;;5.95;77.35
46111;BME280;31849;55.992;37.252;2023-03-12T07:27:57;96082.38;;;5.96;77.67
46111;BME280;31849;55.992;37.252;2023-03-12T07:33:03;96075.88;;;6.09;76.78
46111;BME280;31849;55.992;37.252;2023-03-12T07:38:07;96061.16;;;6.11;77.84
46111;BME280;31849;55.992;37.252;2023-03-12T07:43:11;96058.41;;;6.16;76.23
46111;BME280;31849;55.992;37.252;2023-03-12T07:48:17;96053.53;;;6.30;76.99
46111;BME280;31849;55.992;37.252;2023-03-12T07:53:21;96036.34;;;6.31;76.27
46111;BME280;31849;55.992;37.252;2023-03-12T07:58:25;96028.03;;;6.45;75.90
46111;BME280;31849;55.992;37.252;2023-03-12T08:03:30;96022.75;;;6.48;75.91
46111;BME280;31849;55.992;37.252;2023-03-12T08:08:34;96015.44;;;6.37;76.93
46111;BME280;31849;55.992;37.252;2023-03-12T08:13:39;96012.66;;;6.42;76.07
46111;BME280;31849;55.992;37.252;2023-03-12T08:18:44;95999.09;;;6.37;76.55
46111;BME280;31849;55.992;37.252;2023-03-12T08:23:47;95997.69;;;6.50;76.99
46111;BME280;31849;55.992;37.252;2023-03-12T08:28:50;95990.06;;;6.47;76.75
46111;BME280;31849;55.992;37.252;2023-03-12T08:33:55;95983.25;;;6.46;76.64
46111;BME280;31849;55.992;37.252;2023-03-12T08:38:59;95986.66;;;6.46;76.78
46111;BME280;31849;55.992;37.252;2023-03-12T08:44:02;95991.16;;;6.62;75.47
46111;BME280;31849;55.992;37.252;2023-03-12T08:49:07;95984.84;;;6.69;76.27
46111;BME280;31849;55.992;37.252;2023-03-12T08:54:10;95970.66;;;6.38;77.56
46111;BME280;31849;55.992;37.252;2023-03-12T08:59:15;95950.78;;;6.81;75.46
46111;BME280;31849;55.992;37.252;2023-03-12T09:04:20;95946.09;;;6.90;75.29
46111;BME280;31849;55.992;37.252;2023-03-12T09:09:23;95937.94;;;6.99;75.07
46111;BME280;31849;55.992;37.252;2023-03-12T09:14:26;95932.00;;;6.97;75.00
46111;BME280;31849;55.992;37.252;2023-03-12T09:19:51;95916.38;;;7.00;75.11
46111;BME280;31849;55.992;37.252;2023-03-12T09:24:55;95910.31;;;7.01;75.22
46111;BME280;31849;55.992;37.252;2023-03-12T09:29:58;95914.41;;;7.24;73.82
46111;BME280;31849;55.992;37.252;2023-03-12T09:35:04;95909.94;;;7.47;72.91
46111;BME280;31849;55.992;37.252;2023-03-12T09:40:14;95896.88;;;7.67;72.40
46111;BME280;31849;55.992;37.252;2023-03-12T09:45:22;95894.22;;;7.51;73.20
46111;BME280;31849;55.992;37.252;2023-03-12T09:50:30;95887.72;;;7.43;74.07
46111;BME280;31849;55.992;37.252;2023-03-12T09:55:36;95871.41;;;7.60;72.56
46111;BME280;31849;55.992;37.252;2023-03-12T10:00:40;95856.66;;;7.62;72.65
46111;BME280;31849;55.992;37.252;2023-03-12T10:05:50;95854.44;;;7.54;72.64
46111;BME280;31849;55.992;37.252;2023-03-12T10:11:08;95840.06;;;7.48;73.27
46111;BME280;31849;55.992;37.252;2023-03-12T10:16:26;95833.84;;;7.70;72.73
46111;BME280;31849;55.992;37.252;2023-03-12T10:21:36;95837.06;;;7.75;72.63
46111;BME280;31849;55.992;37.252;2023-03-12T10:26:48;95815.06;;;7.49;73.07
46111;BME280;31849;55.992;37.252;2023-03-12T10:31:55;95823.84;;;7.45;73.12
46111;BME280;31849;55.992;37.252;2023-03-12T10:37:05;95810.50;;;7.71;71.95
46111;BME280;31849;55.992;37.252;2023-03-12T10:42:16;95817.25;;;7.56;72.96
46111;BME280;31849;55.992;37.252;2023-03-12T10:47:32;95832.41;;;7.82;72.36
46111;BME280;31849;55.992;37.252;2023-03-12T10:52:38;95827.66;;;7.55;70.11
46111;BME280;31849;55.992;37.252;2023-03-12T10:57:41;95842.31;;;7.37;68.47
46111;BME280;31849;55.992;37.252;2023-03-12T11:02:45;95851.94;;;6.78;67.17
46111;BME280;31849;55.992;37.252;2023-03-12T11:07:50;95856.09;;;6.42;66.13
46111;BME280;31849;55.992;37.252;2023-03-12T11:13:02;95858.69;;;6.01;65.46
46111;BME280;31849;55.992;37.252;2023-03-12T11:18:31;95866.97;;;5.67;65.77
46111;BME280;31849;55.992;37.252;2023-03-12T11:23:37;95864.34;;;5.24;65.09
46111;BME280;31849;55.992;37.252;2023-03-12T11:28:44;95882.66;;;4.94;66.00
46111;BME280;31849;55.992;37.252;2023-03-12T11:33:51;95905.63;;;4.53;65.31
46111;BME280;31849;55.992;37.252;2023-03-12T11:39:02;95911.16;;;4.40;65.11
46111;BME280;31849;55.992;37.252;2023-03-12T11:44:26;95916.59;;;4.33;65.04
46111;BME280;31849;55.992;37.252;2023-03-12T11:49:55;95933.78;;;4.05;65.64
46111;BME280;31849;55.992;37.252;2023-03-12T11:55:17;95940.59;;;3.80;65.26
46111;BME280;31849;55.992;37.252;2023-03-12T12:00:26;95949.09;;;3.55;65.79
46111;BME280;31849;55.992;37.252;2023-03-12T12:05:39;95943.59;;;3.39;65.70
46111;BME280;31849;55.992;37.252;2023-03-12T12:10:55;95953.81;;;3.41;65.94
46111;BME280;31849;55.992;37.252;2023-03-12T12:16:21;95957.31;;;3.38;66.00
46111;BME280;31849;55.992;37.252;2023-03-12T12:21:37;95970.75;;;3.18;65.76
46111;BME280;31849;55.992;37.252;2023-03-12T12:26:52;95990.47;;;3.16;65.92
46111;BME280;31849;55.992;37.252;2023-03-12T12:32:00;96016.16;;;2.85;66.72
46111;BME280;31849;55.992;37.252;2023-03-12T12:37:17;96041.38;;;2.70;66.39
46111;BME280;31849;55.992;37.252;2023-03-12T12:42:27;96053.16;;;2.43;65.66
46111;BME280;31849;55.992;37.252;2023-03-12T12:47:39;96063.13;;;2.19;65.89
46111;BME280;31849;55.992;37.252;2023-03-12T12:52:49;96083.50;;;1.88;66.96
46111;BME280;31849;55.992;37.252;2023-03-12T12:58:00;96096.03;;;1.61;66.66
46111;BME280;31849;55.992;37.252;2023-03-12T13:03:04;96118.00;;;1.31;66.93
46111;BME280;31849;55.992;37.252;2023-03-12T13:08:56;96137.00;;;1.17;67.10
46111;BME280;31849;55.992;37.252;2023-03-12T13:19:37;96162.03;;;1.01;67.29
46111;BME280;31849;55.992;37.252;2023-03-12T13:24:53;96182.78;;;0.83;67.38
46111;BME280;31849;55.992;37.252;2023-03-12T13:35:48;96189.34;;;0.46;66.79
46111;BME280;31849;55.992;37.252;2023-03-12T13:41:06;96195.59;;;0.28;67.09
46111;BME280;31849;55.992;37.252;2023-03-12T13:46:26;96219.97;;;0.49;66.08
46111;BME280;31849;55.992;37.252;2023-03-12T13:51:31;96219.50;;;0.23;66.55
46111;BME280;31849;55.992;37.252;2023-03-12T13:56:36;96247.69;;;0.18;66.23
46111;BME280;31849;55.992;37.252;2023-03-12T14:01:39;96247.97;;;-0.07;66.11
46111;BME280;31849;55.992;37.252;2023-03-12T14:06:55;96244.53;;;-0.04;66.31
46111;BME280;31849;55.992;37.252;2023-03-12T14:12:07;96268.16;;;0.12;66.12
46111;BME280;31849;55.992;37.252;2023-03-12T14:17:16;96263.03;;;0.16;65.90
46111;BME280;31849;55.992;37.252;2023-03-12T14:22:22;96276.47;;;0.29;65.36
46111;BME280;31849;55.992;37.252;2023-03-12T14:27:31;96273.19;;;0.20;65.09
46111;BME280;31849;55.992;37.252;2023-03-12T14:32:36;96303.03;;;0.16;65.71
46111;BME280;31849;55.992;37.252;2023-03-12T14:37:43;96320.88;;;0.19;65.63
46111;BME280;31849;55.992;37.252;2023-03-12T14:42:48;96339.16;;;-0.16;65.82
46111;BME280;31849;55.992;37.252;2023-03-12T14:47:53;96355.63;;;-0.48;65.41
46111;BME280;31849;55.992;37.252;2023-03-12T14:53:11;96355.75;;;-0.59;65.53
46111;BME280;31849;55.992;37.252;2023-03-12T14:58:18;96376.34;;;-0.87;66.23
46111;BME280;31849;55.992;37.252;2023-03-12T15:03:22;96382.53;;;-1.30;66.24
46111;BME280;31849;55.992;37.252;2023-03-12T15:08:26;96405.44;;;-1.22;66.17
46111;BME280;31849;55.992;37.252;2023-03-12T15:13:31;96429.31;;;-1.35;67.26
46111;BME280;31849;55.992;37.252;2023-03-12T15:18:39;96445.50;;;-1.52;67.25
46111;BME280;31849;55.992;37.252;2023-03-12T15:23:44;96465.06;;;-1.57;67.67
46111;BME280;31849;55.992;37.252;2023-03-12T15:28:56;96486.31;;;-1.66;66.84
46111;BME280;31849;55.992;37.252;2023-03-12T15:34:01;96516.03;;;-1.77;66.96
46111;BME280;31849;55.992;37.252;2023-03-12T15:39:22;96518.59;;;-1.80;66.38
46111;BME280;31849;55.992;37.252;2023-03-12T15:44:41;96528.75;;;-1.68;67.51
46111;BME280;31849;55.992;37.252;2023-03-12T15:49:49;96562.75;;;-1.66;66.76
46111;BME280;31849;55.992;37.252;2023-03-12T15:55:20;96570.38;;;-1.53;66.91
46111;BME280;31849;55.992;37.252;2023-03-12T16:00:30;96590.75;;;-1.55;67.08
46111;BME280;31849;55.992;37.252;2023-03-12T16:05:36;96607.75;;;-1.74;67.06
46111;BME280;31849;55.992;37.252;2023-03-12T16:10:41;96640.84;;;-1.68;66.60
46111;BME280;31849;55.992;37.252;2023-03-12T16:15:47;96655.28;;;-1.81;66.24
46111;BME280;31849;55.992;37.252;2023-03-12T16:20:51;96662.09;;;-1.70;66.87
46111;BME280;31849;55.992;37.252;2023-03-12T16:25:56;96676.50;;;-1.75;66.06
46111;BME280;31849;55.992;37.252;2023-03-12T16:31:02;96693.50;;;-1.68;66.42
46111;BME280;31849;55.992;37.252;2023-03-12T16:36:10;96700.31;;;-1.77;66.03
46111;BME280;31849;55.992;37.252;2023-03-12T16:41:16;96711.28;;;-1.93;67.00
46111;BME280;31849;55.992;37.252;2023-03-12T16:46:22;96731.69;;;-1.88;66.47
46111;BME280;31849;55.992;37.252;2023-03-12T16:51:26;96746.06;;;-2.01;66.55
46111;BME280;31849;55.992;37.252;2023-03-12T16:56:30;96761.38;;;-1.92;66.18
46111;BME280;31849;55.992;37.252;2023-03-12T17:01:35;96764.75;;;-1.98;66.46
46111;BME280;31849;55.992;37.252;2023-03-12T17:06:39;96777.44;;;-2.07;65.84
46111;BME280;31849;55.992;37.252;2023-03-12T17:11:50;96791.94;;;-1.92;65.64
46111;BME280;31849;55.992;37.252;2023-03-12T17:16:55;96812.31;;;-1.92;65.11
46111;BME280;31849;55.992;37.252;2023-03-12T17:21:59;96836.94;;;-1.91;65.08
46111;BME280;31849;55.992;37.252;2023-03-12T17:27:03;96842.06;;;-1.86;64.27
46111;BME280;31849;55.992;37.252;2023-03-12T17:32:08;96852.19;;;-1.99;64.71
46111;BME280;31849;55.992;37.252;2023-03-12T17:37:12;96864.03;;;-2.02;64.57
46111;BME280;31849;55.992;37.252;2023-03-12T17:42:15;96873.38;;;-2.03;64.54
46111;BME280;31849;55.992;37.252;2023-03-12T17:47:21;96893.75;;;-2.03;64.57
46111;BME280;31849;55.992;37.252;2023-03-12T17:52:25;96904.78;;;-2.05;64.18
46111;BME280;31849;55.992;37.252;2023-03-12T17:57:28;96921.84;;;-1.89;63.88
46111;BME280;31849;55.992;37.252;2023-03-12T18:02:33;96939.66;;;-1.90;64.22
46111;BME280;31849;55.992;37.252;2023-03-12T18:07:37;96953.25;;;-1.91;64.07
46111;BME280;31849;55.992;37.252;2023-03-12T18:12:41;96960.00;;;-1.95;63.65
46111;BME280;31849;55.992;37.252;2023-03-12T18:17:46;96968.50;;;-1.95;63.88
46111;BME280;31849;55.992;37.252;2023-03-12T18:22:54;96965.00;;;-2.09;63.58
46111;BME280;31849;55.992;37.252;2023-03-12T18:27:57;96976.06;;;-2.04;63.32
46111;BME280;31849;55.992;37.252;2023-03-12T18:33:02;96989.56;;;-2.17;62.85
46111;BME280;31849;55.992;37.252;2023-03-12T18:38:06;97013.31;;;-2.18;62.78
46111;BME280;31849;55.992;37.252;2023-03-12T18:43:09;97034.50;;;-2.22;63.15
46111;BME280;31849;55.992;37.252;2023-03-12T18:48:15;97034.47;;;-2.24;62.48
46111;BME280;31849;55.992;37.252;2023-03-12T18:53:19;97037.81;;;-2.30;62.61
46111;BME280;31849;55.992;37.252;2023-03-12T18:58:23;97054.72;;;-2.35;61.98
46111;BME280;31849;55.992;37.252;2023-03-12T19:03:28;97083.69;;;-2.23;61.26
46111;BME280;31849;55.992;37.252;2023-03-12T19:08:37;97106.97;;;-2.68;61.10
46111;BME280;31849;55.992;37.252;2023-03-12T19:13:41;97088.19;;;-2.79;61.40
46111;BME280;31849;55.992;37.252;2023-03-12T19:18:47;97122.44;;;-2.51;61.35
46111;BME280;31849;55.992;37.252;2023-03-12T19:23:50;97135.72;;;-2.73;61.01
46111;BME280;31849;55.992;37.252;2023-03-12T19:28:54;97153.31;;;-2.89;61.39
46111;BME280;31849;55.992;37.252;2023-03-12T19:33:59;97176.06;;;-3.01;61.52
46111;BME280;31849;55.992;37.252;2023-03-12T19:39:02;97188.34;;;-3.29;61.57
46111;BME280;31849;55.992;37.252;2023-03-12T19:44:19;97188.94;;;-3.45;61.56
46111;BME280;31849;55.992;37.252;2023-03-12T19:49:24;97202.34;;;-3.53;60.94
46111;BME280;31849;55.992;37.252;2023-03-12T19:54:27;97218.97;;;-3.70;60.90
46111;BME280;31849;55.992;37.252;2023-03-12T19:59:31;97224.00;;;-3.73;61.24
46111;BME280;31849;55.992;37.252;2023-03-12T20:04:36;97234.16;;;-3.73;61.63
46111;BME280;31849;55.992;37.252;2023-03-12T20:09:40;97241.66;;;-3.81;61.29
46111;BME280;31849;55.992;37.252;2023-03-12T20:14:44;97256.16;;;-3.75;61.04
46111;BME280;31849;55.992;37.252;2023-03-12T20:19:48;97269.84;;;-3.65;61.69
46111;BME280;31849;55.992;37.252;2023-03-12T20:24:52;97266.50;;;-3.64;61.63
46111;BME280;31849;55.992;37.252;2023-03-12T20:29:56;97273.97;;;-3.72;61.62
46111;BME280;31849;55.992;37.252;2023-03-12T20:35:01;97286.53;;;-3.80;61.81
46111;BME280;31849;55.992;37.252;2023-03-12T20:40:06;97303.72;;;-3.66;61.49
46111;BME280;31849;55.992;37.252;2023-03-12T20:45:10;97297.66;;;-3.73;62.24
46111;BME280;31849;55.992;37.252;2023-03-12T20:50:15;97304.06;;;-3.48;61.61
46111;BME280;31849;55.992;37.252;2023-03-12T20:55:19;97321.97;;;-3.40;61.84
46111;BME280;31849;55.992;37.252;2023-03-12T21:00:22;97330.38;;;-3.44;62.27
46111;BME280;31849;55.992;37.252;2023-03-12T21:05:27;97325.66;;;-3.23;61.71
46111;BME280;31849;55.992;37.252;2023-03-12T21:10:30;97347.03;;;-3.13;61.00
46111;BME280;31849;55.992;37.252;2023-03-12T21:15:37;97347.59;;;-3.29;61.57
46111;BME280;31849;55.992;37.252;2023-03-12T21:20:42;97359.25;;;-3.39;61.63
46111;BME280;31849;55.992;37.252;2023-03-12T21:25:45;97372.09;;;-3.31;61.99
46111;BME280;31849;55.992;37.252;2023-03-12T21:30:49;97384.22;;;-3.18;62.05
46111;BME280;31849;55.992;37.252;2023-03-12T21:35:54;97386.81;;;-3.15;61.64
46111;BME280;31849;55.992;37.252;2023-03-12T21:41:03;97388.88;;;-2.95;61.32
46111;BME280;31849;55.992;37.252;2023-03-12T21:46:08;97397.94;;;-3.10;61.12
46111;BME280;31849;55.992;37.252;2023-03-12T21:51:14;97424.91;;;-3.16;61.25
46111;BME280;31849;55.992;37.252;2023-03-12T21:56:18;97427.13;;;-3.35;61.38
46111;BME280;31849;55.992;37.252;2023-03-12T22:01:22;97417.50;;;-3.50;61.69
46111;BME280;31849;55.992;37.252;2023-03-12T22:06:27;97441.06;;;-3.57;62.10
46111;BME280;31849;55.992;37.252;2023-03-12T22:11:31;97453.34;;;-3.76;62.50
46111;BME280;31849;55.992;37.252;2023-03-12T22:16:35;97471.03;;;-3.80;62.13
46111;BME280;31849;55.992;37.252;2023-03-12T22:21:39;97484.94;;;-3.64;62.24
46111;BME280;31849;55.992;37.252;2023-03-12T22:26:44;97485.34;;;-3.46;61.63
46111;BME280;31849;55.992;37.252;2023-03-12T22:31:48;97497.13;;;-3.48;61.79
46111;BME280;31849;55.992;37.252;2023-03-12T22:36:53;97503.72;;;-3.58;61.80
46111;BME280;31849;55.992;37.252;2023-03-12T22:41:56;97509.81;;;-3.49;61.81
46111;BME280;31849;55.992;37.252;2023-03-12T22:47:00;97516.81;;;-3.39;61.43
46111;BME280;31849;55.992;37.252;2023-03-12T22:52:05;97527.13;;;-3.31;61.21
46111;BME280;31849;55.992;37.252;2023-03-12T22:57:09;97526.72;;;-3.51;61.51
46111;BME280;31849;55.992;37.252;2023-03-12T23:02:12;97560.78;;;-3.42;61.40
46111;BME280;31849;55.992;37.252;2023-03-12T23:07:17;97553.00;;;-3.49;61.44
46111;BME280;31849;55.992;37.252;2023-03-12T23:12:21;97575.44;;;-3.30;61.66
46111;BME280;31849;55.992;37.252;2023-03-12T23:17:24;97584.06;;;-3.25;61.54
46111;BME280;31849;55.992;37.252;2023-03-12T23:22:29;97586.31;;;-3.37;62.06
46111;BME280;31849;55.992;37.252;2023-03-12T23:27:33;97589.13;;;-3.63;61.88
46111;BME280;31849;55.992;37.252;2023-03-12T23:32:36;97605.94;;;-3.30;61.74
46111;BME280;31849;55.992;37.252;2023-03-12T23:37:41;97605.72;;;-3.41;61.62
46111;BME280;31849;55.992;37.252;2023-03-12T23:42:44;97616.91;;;-3.34;61.55
46111;BME280;31849;55.992;37.252;2023-03-12T23:47:47;97620.91;;;-3.44;61.37
46111;BME280;31849;55.992;37.252;2023-03-12T23:52:52;97630.00;;;-3.52;61.58
46111;BME280;31849;55.992;37.252;2023-03-12T23:57:56;97635.28;;;-3.44;60.99
